METAR Data
IDs: Format: Raw Decoded Include TAF

Data at: 0020 UTC 30 May 2020

METAR for:KMXO (Monticello Rgnl, IA, US)
Text:KMXO 300015Z AUTO 34009G14KT 10SM BKN050 BKN055 19/09 A3011 RMK AO2
Temperature: 19.0°C ( 66°F)
Dewpoint: 9.0°C ( 48°F) [RH = 52%]
Pressure (altimeter):30.11 inches Hg (1019.7 mb)
Winds:from the NNW (340 degrees) at 10 MPH (9 knots; 4.6 m/s) gusting to 16 MPH (14 knots; 7.2 m/s)
Visibility:10 or more sm (16+ km)
Ceiling:5000 feet AGL
Clouds: broken clouds at 5000 feet AGL, broken clouds at 5500 feet AGL
QC Flag:automated observation with no human augmentation